createdAt,value
2017-09-05T00:00:00.212Z,68.89
2017-09-05T00:00:26.325Z,69.37
2017-09-05T00:00:52.438Z,69.37
2017-09-05T00:01:18.618Z,69.37
2017-09-05T00:01:44.735Z,68.89
2017-09-05T00:02:11.482Z,68.79
2017-09-05T00:02:37.577Z,68.89
2017-09-05T00:03:03.688Z,69.08
2017-09-05T00:03:29.819Z,68.51
2017-09-05T00:03:55.922Z,68.41
2017-09-05T00:04:22.028Z,68.51
2017-09-05T00:04:48.145Z,68.6
2017-09-05T00:05:14.249Z,68.51
2017-09-05T00:05:40.366Z,69.08
2017-09-05T00:06:06.475Z,68.51
2017-09-05T00:06:32.585Z,68.6
2017-09-05T00:06:58.766Z,68.89
2017-09-05T00:07:24.879Z,68.89
2017-09-05T00:07:50.991Z,69.18
2017-09-05T00:08:17.093Z,69.27
2017-09-05T00:08:43.209Z,69.18
2017-09-05T00:09:09.313Z,69.18
2017-09-05T00:09:35.471Z,69.18
2017-09-05T00:10:01.580Z,69.46
2017-09-05T00:10:27.723Z,69.18
2017-09-05T00:10:53.838Z,69.18
2017-09-05T00:11:19.946Z,68.7
2017-09-05T00:11:46.048Z,68.6
2017-09-05T00:12:12.156Z,68.51
2017-09-05T00:12:38.270Z,68.6
2017-09-05T00:13:04.368Z,68.41
2017-09-05T00:13:30.483Z,68.79
2017-09-05T00:13:56.586Z,68.98
2017-09-05T00:14:22.708Z,68.98
2017-09-05T00:14:48.819Z,68.6
2017-09-05T00:15:14.922Z,68.79
2017-09-05T00:15:41.050Z,69.18
2017-09-05T00:16:07.164Z,69.08
2017-09-05T00:16:33.272Z,68.89
2017-09-05T00:16:59.381Z,68.79
2017-09-05T00:17:25.491Z,68.7
2017-09-05T00:17:51.604Z,68.41
2017-09-05T00:18:17.713Z,68.6
2017-09-05T00:18:43.821Z,69.27
2017-09-05T00:19:09.926Z,69.18
2017-09-05T00:19:36.037Z,69.56
2017-09-05T00:20:02.154Z,69.37
2017-09-05T00:20:28.273Z,69.46
2017-09-05T00:20:54.396Z,69.27
2017-09-05T00:21:20.508Z,69.56
2017-09-05T00:21:46.617Z,69.27
2017-09-05T00:22:12.725Z,69.37
2017-09-05T00:22:38.826Z,68.98
2017-09-05T00:23:04.945Z,69.56
2017-09-05T00:23:31.050Z,69.27
2017-09-05T00:23:57.165Z,69.27
2017-09-05T00:24:23.264Z,69.08
2017-09-05T00:24:49.375Z,69.27
2017-09-05T00:25:15.490Z,69.18
2017-09-05T00:25:41.615Z,69.18
2017-09-05T00:26:07.736Z,69.08
2017-09-05T00:26:33.851Z,68.98
2017-09-05T00:26:59.976Z,69.46
2017-09-05T00:27:26.093Z,69.18
2017-09-05T00:27:52.204Z,69.18
2017-09-05T00:28:18.312Z,69.27
2017-09-05T00:28:44.416Z,69.27
2017-09-05T00:29:10.590Z,69.46
2017-09-05T00:29:36.723Z,69.46
2017-09-05T00:30:02.833Z,69.75
2017-09-05T00:30:28.943Z,69.81
2017-09-05T00:30:55.045Z,69.91
2017-09-05T00:31:21.150Z,70.01
2017-09-05T00:31:47.265Z,69.56
2017-09-05T00:32:13.375Z,69.62
2017-09-05T00:32:39.479Z,69.72
2017-09-05T00:33:05.588Z,69.91
2017-09-05T00:33:31.706Z,69.62
2017-09-05T00:33:57.836Z,69.53
2017-09-05T00:34:23.949Z,70.01
2017-09-05T00:34:50.062Z,70.43
2017-09-05T00:35:16.227Z,69.81
2017-09-05T00:35:42.314Z,69.81
2017-09-05T00:36:08.425Z,69.95
2017-09-05T00:36:34.533Z,69.81
2017-09-05T00:37:00.647Z,70.04
2017-09-05T00:37:26.751Z,69.66
2017-09-05T00:37:52.886Z,69.62
2017-09-05T00:38:18.990Z,69.81
2017-09-05T00:38:45.105Z,69.72
2017-09-05T00:39:11.216Z,69.91
2017-09-05T00:39:37.321Z,69.81
2017-09-05T00:40:03.428Z,70.01
2017-09-05T00:40:29.543Z,70.1
2017-09-05T00:40:55.700Z,70.1
2017-09-05T00:41:21.803Z,69.81
2017-09-05T00:41:47.918Z,70.1
2017-09-05T00:42:14.023Z,70.1
2017-09-05T00:42:40.147Z,70.2
2017-09-05T00:43:06.261Z,70.39
2017-09-05T00:43:32.374Z,70.39
2017-09-05T00:43:58.490Z,70.29
2017-09-05T00:44:24.648Z,70.78
2017-09-05T00:44:50.750Z,71.06
2017-09-05T00:45:16.866Z,70.78
2017-09-05T00:45:42.970Z,70.97
2017-09-05T00:46:09.082Z,70.68
2017-09-05T00:46:35.196Z,70.87
2017-09-05T00:47:01.321Z,71.35
2017-09-05T00:47:27.426Z,71.31
2017-09-05T00:47:53.534Z,70.87
2017-09-05T00:48:19.643Z,71.35
2017-09-05T00:48:45.761Z,71.35
2017-09-05T00:49:11.869Z,71.35
2017-09-05T00:49:37.994Z,71.25
2017-09-05T00:50:04.125Z,71.45
2017-09-05T00:50:30.234Z,71.45
2017-09-05T00:50:56.351Z,71.16
2017-09-05T00:51:22.480Z,71.55
2017-09-05T00:51:48.594Z,70.87
2017-09-05T00:52:14.702Z,71.35
2017-09-05T00:52:40.852Z,71.16
2017-09-05T00:53:06.989Z,71.25
2017-09-05T00:53:33.107Z,71.35
2017-09-05T00:53:59.209Z,71.06
2017-09-05T00:54:25.324Z,71.25
2017-09-05T00:54:51.435Z,71.35
2017-09-05T00:55:17.544Z,71.25
2017-09-05T00:55:43.658Z,71.35
2017-09-05T00:56:09.763Z,71.93
2017-09-05T00:56:35.869Z,71.06
2017-09-05T00:57:01.984Z,71.25
2017-09-05T00:57:28.088Z,71.16
2017-09-05T00:57:54.200Z,71.25
2017-09-05T00:58:20.313Z,71.93
2017-09-05T00:58:47.906Z,71.25
2017-09-05T00:59:14.117Z,71.64
2017-09-05T00:59:40.257Z,71.73
2017-09-05T01:00:06.391Z,71.83
2017-09-05T01:00:32.524Z,71.55
2017-09-05T01:00:58.656Z,71.73
2017-09-05T01:01:24.796Z,71.83
2017-09-05T01:01:50.941Z,71.25
2017-09-05T01:02:17.076Z,71.25
2017-09-05T01:02:43.205Z,71.73
2017-09-05T01:03:09.367Z,71.45
2017-09-05T01:03:35.634Z,72.02
2017-09-05T01:04:01.765Z,71.7
2017-09-05T01:04:27.898Z,71.83
2017-09-05T01:04:54.034Z,71.73
2017-09-05T01:05:20.176Z,71.64
2017-09-05T01:05:46.304Z,71.45
2017-09-05T01:06:12.435Z,71.73
2017-09-05T01:06:38.565Z,71.45
2017-09-05T01:07:04.711Z,71.93
2017-09-05T01:07:30.838Z,71.55
2017-09-05T01:07:56.976Z,71.8
2017-09-05T01:08:23.104Z,72.02
2017-09-05T01:08:49.234Z,71.73
2017-09-05T01:09:15.373Z,71.45
2017-09-05T01:09:41.498Z,71.45
2017-09-05T01:10:07.704Z,71.25
2017-09-05T01:10:33.836Z,71.55
2017-09-05T01:10:59.969Z,71.93
2017-09-05T01:11:26.151Z,71.73
2017-09-05T01:11:52.305Z,71.89
2017-09-05T01:12:18.440Z,71.83
2017-09-05T01:12:44.617Z,72.02
2017-09-05T01:13:10.787Z,71.64
2017-09-05T01:13:36.920Z,71.73
2017-09-05T01:14:03.048Z,71.93
2017-09-05T01:14:29.184Z,72.02
2017-09-05T01:14:55.318Z,71.55
2017-09-05T01:15:21.447Z,71.55
2017-09-05T01:15:47.578Z,71.64
2017-09-05T01:16:13.710Z,71.25
2017-09-05T01:16:39.845Z,71.55
2017-09-05T01:17:05.980Z,72.02
2017-09-05T01:17:32.114Z,71.83
2017-09-05T01:17:58.244Z,71.64
2017-09-05T01:18:24.386Z,71.73
2017-09-05T01:18:50.509Z,71.98
2017-09-05T01:19:16.687Z,71.89
2017-09-05T01:19:42.820Z,71.31
2017-09-05T01:20:08.945Z,71.89
2017-09-05T01:20:35.138Z,71.61
2017-09-05T01:21:01.324Z,71.61
2017-09-05T01:21:27.466Z,71.89
2017-09-05T01:21:53.597Z,72.08
2017-09-05T01:22:19.736Z,72.08
2017-09-05T01:22:45.866Z,72.18
2017-09-05T01:23:11.994Z,72.28
2017-09-05T01:23:38.135Z,72.37
2017-09-05T01:24:04.268Z,72.37
2017-09-05T01:24:30.396Z,71.89
2017-09-05T01:24:56.527Z,71.89
2017-09-05T01:25:22.705Z,71.89
2017-09-05T01:25:48.840Z,71.89
2017-09-05T01:26:14.975Z,71.8
2017-09-05T01:26:41.106Z,71.51
2017-09-05T01:27:07.273Z,71.8
2017-09-05T01:27:33.469Z,71.61
2017-09-05T01:27:59.622Z,71.89
2017-09-05T01:28:25.756Z,71.89
2017-09-05T01:28:51.891Z,71.89
2017-09-05T01:29:18.025Z,72.37
2017-09-05T01:29:44.151Z,72.75
2017-09-05T01:30:10.290Z,71.89
2017-09-05T01:30:36.421Z,72.56
2017-09-05T01:31:02.586Z,72.37
2017-09-05T01:31:28.716Z,72.56
2017-09-05T01:31:54.915Z,72.66
2017-09-05T01:32:21.063Z,72.56
2017-09-05T01:32:47.191Z,71.98
2017-09-05T01:33:13.326Z,71.89
2017-09-05T01:33:39.489Z,72.47
2017-09-05T01:34:05.588Z,71.8
2017-09-05T01:34:31.724Z,72.18
2017-09-05T01:34:57.855Z,72.56
2017-09-05T01:35:23.993Z,71.8
2017-09-05T01:35:50.120Z,72.56
2017-09-05T01:36:16.256Z,72.18
2017-09-05T01:36:42.384Z,72.18
2017-09-05T01:37:08.517Z,72.08
2017-09-05T01:37:34.651Z,72.47
2017-09-05T01:38:00.777Z,72.18
2017-09-05T01:38:26.908Z,72.75
2017-09-05T01:38:53.036Z,72.75
2017-09-05T01:39:19.166Z,72.37
2017-09-05T01:39:45.307Z,72.18
2017-09-05T01:40:11.439Z,72.28
2017-09-05T01:40:37.570Z,72.47
2017-09-05T01:41:03.694Z,72.47
2017-09-05T01:41:29.826Z,72.56
2017-09-05T01:41:55.967Z,72.47
2017-09-05T01:42:22.096Z,72.37
2017-09-05T01:42:48.234Z,72.66
2017-09-05T01:43:14.369Z,72.75
2017-09-05T01:43:40.504Z,72.56
2017-09-05T01:44:06.670Z,72.75
2017-09-05T01:44:32.769Z,72.47
2017-09-05T01:44:58.907Z,72.37
2017-09-05T01:45:25.030Z,72.08
2017-09-05T01:45:51.162Z,72.08
2017-09-05T01:46:17.290Z,72.75
2017-09-05T01:46:43.425Z,72.56
2017-09-05T01:47:09.552Z,72.56
2017-09-05T01:47:35.704Z,72.66
2017-09-05T01:48:01.838Z,72.47
2017-09-05T01:48:27.969Z,72.85
2017-09-05T01:48:54.113Z,73.33
2017-09-05T01:49:20.238Z,73.04
2017-09-05T01:49:46.377Z,72.95
2017-09-05T01:50:12.507Z,72.95
2017-09-05T01:50:38.637Z,72.75
2017-09-05T01:51:04.791Z,72.37
2017-09-05T01:51:30.925Z,72.37
2017-09-05T01:51:57.056Z,72.08
2017-09-05T01:52:23.186Z,72.89
2017-09-05T01:52:49.325Z,72.66
2017-09-05T01:53:15.454Z,72.12
2017-09-05T01:53:41.593Z,72.56
2017-09-05T01:54:07.718Z,72.56
2017-09-05T01:54:33.856Z,72.47
2017-09-05T01:54:59.995Z,72.75
2017-09-05T01:55:26.122Z,72.5
2017-09-05T01:55:52.261Z,72.56
2017-09-05T01:56:18.387Z,72.5
2017-09-05T01:56:44.526Z,72.66
2017-09-05T01:57:10.658Z,72.69
2017-09-05T01:57:36.789Z,72.69
2017-09-05T01:58:02.947Z,72.02
2017-09-05T01:58:29.075Z,72.69
2017-09-05T01:58:55.208Z,72.69
2017-09-05T01:59:21.335Z,72.79
2017-09-05T01:59:47.471Z,72.12
2017-09-05T02:00:13.598Z,72.89
2017-09-05T02:00:39.737Z,72.02
2017-09-05T02:01:05.878Z,72.79
2017-09-05T02:01:32.008Z,72.31
2017-09-05T02:01:58.140Z,72.31
2017-09-05T02:02:24.269Z,72.69
2017-09-05T02:02:50.403Z,72.6
2017-09-05T02:03:16.531Z,72.99
2017-09-05T02:03:42.660Z,72.12
2017-09-05T02:04:08.796Z,72.5
2017-09-05T02:04:34.931Z,71.93
2017-09-05T02:05:01.060Z,72.69
2017-09-05T02:05:27.189Z,72.31
2017-09-05T02:05:53.341Z,72.12
2017-09-05T02:06:19.467Z,72.12
2017-09-05T02:06:45.648Z,72.5
2017-09-05T02:07:11.745Z,72.12
2017-09-05T02:07:37.880Z,72.79
2017-09-05T02:08:04.009Z,71.93
2017-09-05T02:08:30.144Z,72.6
2017-09-05T02:08:56.277Z,72.22
2017-09-05T02:09:22.398Z,72.79
2017-09-05T02:09:48.532Z,72.89
2017-09-05T02:10:14.667Z,72.5
2017-09-05T02:10:40.795Z,72.37
2017-09-05T02:11:06.922Z,72.75
2017-09-05T02:11:33.061Z,73.37
2017-09-05T02:11:59.191Z,73.85
2017-09-05T02:12:25.317Z,72.99
2017-09-05T02:12:51.452Z,72.89
2017-09-05T02:13:17.580Z,72.79
2017-09-05T02:13:43.718Z,73.27
2017-09-05T02:14:09.845Z,73.18
2017-09-05T02:14:35.980Z,72.41
2017-09-05T02:15:02.130Z,72.5
2017-09-05T02:15:28.257Z,72.6
2017-09-05T02:15:54.396Z,72.69
2017-09-05T02:16:20.524Z,72.6
2017-09-05T02:16:46.658Z,72.6
2017-09-05T02:17:12.790Z,72.5
2017-09-05T02:17:38.927Z,72.89
2017-09-05T02:18:05.053Z,73.46
2017-09-05T02:18:31.187Z,73.46
2017-09-05T02:18:57.324Z,73.08
2017-09-05T02:19:23.453Z,72.79
2017-09-05T02:19:49.586Z,73.56
2017-09-05T02:20:15.724Z,73.37
2017-09-05T02:20:41.851Z,72.99
2017-09-05T02:21:07.990Z,72.99
2017-09-05T02:21:34.119Z,73.46
2017-09-05T02:22:00.252Z,73.66
2017-09-05T02:22:26.386Z,73.94
2017-09-05T02:22:52.520Z,73.27
2017-09-05T02:23:18.651Z,73.46
2017-09-05T02:23:44.784Z,73.56
2017-09-05T02:24:10.925Z,73.66
2017-09-05T02:24:37.051Z,73.56
2017-09-05T02:25:03.181Z,73.56
2017-09-05T02:25:29.318Z,73.37
2017-09-05T02:25:55.450Z,73.46
2017-09-05T02:26:21.583Z,73.46
2017-09-05T02:26:47.720Z,73.94
2017-09-05T02:27:13.868Z,73.75
2017-09-05T02:27:40.008Z,73.85
2017-09-05T02:28:06.140Z,73.66
2017-09-05T02:28:32.266Z,73.37
2017-09-05T02:28:58.427Z,73.66
2017-09-05T02:29:24.549Z,73.56
2017-09-05T02:29:50.689Z,73.75
2017-09-05T02:30:16.807Z,73.66
2017-09-05T02:30:42.940Z,73.75
2017-09-05T02:31:09.077Z,73.75
2017-09-05T02:31:35.213Z,74.13
2017-09-05T02:32:01.347Z,74.9
2017-09-05T02:32:27.475Z,74.13
2017-09-05T02:32:53.612Z,74.33
2017-09-05T02:33:19.747Z,74.13
2017-09-05T02:33:45.880Z,74.52
2017-09-05T02:34:12.009Z,74.04
2017-09-05T02:34:38.149Z,73.75
2017-09-05T02:35:04.286Z,73.75
2017-09-05T02:35:30.412Z,73.75
2017-09-05T02:35:56.571Z,73.75
2017-09-05T02:36:22.722Z,73.56
2017-09-05T02:36:48.881Z,73.85
2017-09-05T02:37:15.011Z,74.04
2017-09-05T02:37:41.141Z,74.43
2017-09-05T02:38:07.277Z,74.13
2017-09-05T02:38:33.412Z,74.23
2017-09-05T02:38:59.541Z,74.23
2017-09-05T02:39:25.673Z,74.23
2017-09-05T02:39:51.808Z,74.04
2017-09-05T02:40:17.938Z,74.04
2017-09-05T02:40:44.070Z,74.04
2017-09-05T02:41:10.204Z,74.43
2017-09-05T02:41:36.338Z,74.04
2017-09-05T02:42:02.471Z,74.23
2017-09-05T02:42:28.602Z,73.94
2017-09-05T02:42:54.736Z,74.43
2017-09-05T02:43:20.870Z,74.43
2017-09-05T02:43:47.004Z,74.23
2017-09-05T02:44:13.139Z,74.62
2017-09-05T02:44:39.265Z,74.13
2017-09-05T02:45:05.406Z,74.52
2017-09-05T02:45:31.542Z,74.81
2017-09-05T02:45:57.668Z,74.43
2017-09-05T02:46:23.806Z,74.71
2017-09-05T02:46:49.937Z,74.71
2017-09-05T02:47:16.065Z,75.2
2017-09-05T02:47:42.206Z,74.9
2017-09-05T02:48:08.335Z,74.9
2017-09-05T02:48:34.468Z,74.9
2017-09-05T02:49:00.601Z,75.1
2017-09-05T02:49:26.734Z,75.1
2017-09-05T02:49:52.863Z,75
2017-09-05T02:50:18.999Z,75.57
2017-09-05T02:50:45.130Z,75.67
2017-09-05T02:51:11.263Z,75.38
2017-09-05T02:51:37.400Z,75.67
2017-09-05T02:52:03.529Z,75.67
2017-09-05T02:52:29.671Z,75.67
2017-09-05T02:52:55.794Z,75.87
2017-09-05T02:53:21.936Z,75.48
2017-09-05T02:53:48.061Z,75.67
2017-09-05T02:54:14.221Z,75.38
2017-09-05T02:54:40.347Z,75.38
2017-09-05T02:55:06.507Z,75.48
2017-09-05T02:55:32.633Z,75.48
2017-09-05T02:55:58.764Z,75.48
2017-09-05T02:56:24.897Z,75.2
2017-09-05T02:56:51.041Z,75.48
2017-09-05T02:57:17.178Z,75.96
2017-09-05T02:57:43.313Z,76.54
2017-09-05T02:58:09.443Z,76.25
2017-09-05T02:58:35.572Z,76.25
2017-09-05T02:59:01.707Z,76.34
2017-09-05T02:59:27.842Z,75.96
2017-09-05T02:59:53.972Z,75.29
2017-09-05T03:00:20.109Z,75.77
2017-09-05T03:00:46.238Z,75.67
2017-09-05T03:01:12.366Z,75.29
2017-09-05T03:01:38.504Z,75.67
2017-09-05T03:02:04.630Z,75.67
2017-09-05T03:02:30.770Z,75.48
2017-09-05T03:02:56.906Z,75.29
2017-09-05T03:03:23.035Z,75.38
2017-09-05T03:03:49.175Z,75.77
2017-09-05T03:04:15.305Z,75.57
2017-09-05T03:04:41.433Z,75.96
2017-09-05T03:05:07.569Z,76.44
2017-09-05T03:05:33.704Z,76.34
2017-09-05T03:05:59.834Z,76.34
2017-09-05T03:06:25.961Z,76.34
2017-09-05T03:06:52.099Z,76.25
2017-09-05T03:07:18.226Z,76.73
2017-09-05T03:07:44.365Z,76.15
2017-09-05T03:08:10.498Z,76.06
2017-09-05T03:08:36.633Z,76.54
2017-09-05T03:09:02.761Z,76.15
2017-09-05T03:09:28.890Z,75.96
2017-09-05T03:09:55.017Z,76.15
2017-09-05T03:10:21.148Z,76.34
2017-09-05T03:10:47.276Z,76.44
2017-09-05T03:11:13.442Z,76.82
2017-09-05T03:11:39.577Z,76.73
2017-09-05T03:12:05.710Z,76.73
2017-09-05T03:12:31.844Z,77.21
2017-09-05T03:12:58.002Z,76.44
2017-09-05T03:13:24.137Z,76.54
2017-09-05T03:13:50.287Z,76.73
2017-09-05T03:14:16.428Z,76.54
2017-09-05T03:14:42.578Z,76.34
2017-09-05T03:15:08.706Z,76.25
2017-09-05T03:15:34.842Z,76.44
2017-09-05T03:16:00.970Z,75.77
2017-09-05T03:16:27.126Z,76.25
2017-09-05T03:16:53.258Z,76.44
2017-09-05T03:17:19.399Z,75.48
2017-09-05T03:17:45.532Z,75.77
2017-09-05T03:18:11.662Z,75.87
2017-09-05T03:18:37.795Z,75.87
2017-09-05T03:19:03.930Z,75.77
2017-09-05T03:19:30.049Z,75.67
2017-09-05T03:19:56.187Z,75.2
2017-09-05T03:20:22.319Z,75.67
2017-09-05T03:20:48.459Z,75.77
2017-09-05T03:21:14.639Z,75.38
2017-09-05T03:21:40.769Z,75.57
2017-09-05T03:22:06.901Z,75.48
2017-09-05T03:22:33.036Z,75.77
2017-09-05T03:22:59.167Z,75.67
2017-09-05T03:23:25.298Z,76.25
2017-09-05T03:23:51.437Z,76.15
2017-09-05T03:24:17.564Z,76.34
2017-09-05T03:24:43.689Z,76.15
2017-09-05T03:25:09.823Z,75.87
2017-09-05T03:25:35.966Z,75.57
2017-09-05T03:26:02.089Z,75.57
2017-09-05T03:26:28.227Z,75.77
2017-09-05T03:26:54.363Z,76.15
2017-09-05T03:27:20.492Z,75.67
2017-09-05T03:27:46.625Z,75.48
2017-09-05T03:28:12.757Z,75.48
2017-09-05T03:28:38.889Z,75.48
2017-09-05T03:29:05.019Z,75.77
2017-09-05T03:29:31.154Z,75.48
2017-09-05T03:29:57.289Z,75.67
2017-09-05T03:30:23.415Z,75.57
2017-09-05T03:30:49.543Z,75.48
2017-09-05T03:31:15.680Z,75.57
2017-09-05T03:31:41.828Z,75.87
2017-09-05T03:32:07.959Z,75.87
2017-09-05T03:32:34.094Z,75.87
2017-09-05T03:33:00.226Z,75.57
2017-09-05T03:33:26.353Z,75.67
2017-09-05T03:33:52.489Z,75.96
2017-09-05T03:34:18.621Z,76.34
2017-09-05T03:34:44.753Z,76.54
2017-09-05T03:35:10.890Z,76.44
2017-09-05T03:35:37.019Z,76.54
2017-09-05T03:36:03.156Z,76.34
2017-09-05T03:36:29.286Z,75.87
2017-09-05T03:36:55.416Z,75.67
2017-09-05T03:37:21.555Z,75.48
2017-09-05T03:37:47.684Z,75.57
2017-09-05T03:38:13.821Z,75.87
2017-09-05T03:38:39.954Z,76.54
2017-09-05T03:39:06.084Z,76.25
2017-09-05T03:39:32.219Z,75.87
2017-09-05T03:39:58.374Z,75.67
2017-09-05T03:40:24.505Z,75.29
2017-09-05T03:40:50.644Z,75.38
2017-09-05T03:41:16.771Z,75.29
2017-09-05T03:41:42.907Z,75.67
2017-09-05T03:42:09.035Z,75.57
2017-09-05T03:42:35.192Z,75.38
2017-09-05T03:43:01.323Z,75.29
2017-09-05T03:43:27.464Z,75.38
2017-09-05T03:43:53.597Z,75.87
2017-09-05T03:44:19.721Z,75.96
2017-09-05T03:44:45.859Z,75.48
2017-09-05T03:45:11.987Z,75.57
2017-09-05T03:45:38.125Z,75.38
2017-09-05T03:46:04.263Z,75.38
2017-09-05T03:46:30.396Z,75.57
2017-09-05T03:46:56.533Z,75.57
2017-09-05T03:47:22.662Z,75.48
2017-09-05T03:47:48.797Z,75.1
2017-09-05T03:48:14.933Z,75.77
2017-09-05T03:48:41.063Z,75.1
2017-09-05T03:49:07.193Z,75.2
2017-09-05T03:49:33.325Z,75.38
2017-09-05T03:49:59.457Z,74.43
2017-09-05T03:50:25.584Z,75.2
2017-09-05T03:50:51.736Z,75.48
2017-09-05T03:51:17.877Z,74.9
2017-09-05T03:51:44.010Z,74.81
2017-09-05T03:52:10.137Z,75.1
2017-09-05T03:52:36.276Z,75.1
2017-09-05T03:53:02.402Z,74.9
2017-09-05T03:53:28.534Z,75.2
2017-09-05T03:53:54.669Z,75.2
2017-09-05T03:54:20.799Z,74.9
2017-09-05T03:54:46.937Z,74.9
2017-09-05T03:55:13.088Z,75.77
2017-09-05T03:55:39.194Z,75.48
2017-09-05T03:56:05.330Z,75.67
2017-09-05T03:56:31.493Z,76.44
2017-09-05T03:56:57.586Z,76.15
2017-09-05T03:57:23.748Z,76.34
2017-09-05T03:57:49.877Z,76.25
2017-09-05T03:58:16.006Z,76.44
2017-09-05T03:58:42.141Z,76.64
2017-09-05T03:59:08.274Z,76.15
2017-09-05T03:59:34.402Z,75.87
2017-09-05T04:00:00.540Z,75.77
2017-09-05T04:00:26.672Z,76.54
2017-09-05T04:00:52.805Z,76.25
2017-09-05T04:01:18.941Z,76.44
2017-09-05T04:01:45.065Z,76.44
2017-09-05T04:02:11.197Z,76.44
2017-09-05T04:02:37.332Z,75.87
2017-09-05T04:03:03.468Z,76.44
2017-09-05T04:03:29.597Z,76.34
2017-09-05T04:03:55.729Z,75.57
2017-09-05T04:04:21.857Z,76.25
2017-09-05T04:04:47.987Z,76.54
2017-09-05T04:05:14.116Z,76.34
2017-09-05T04:05:40.259Z,76.64
2017-09-05T04:06:06.390Z,76.73
2017-09-05T04:06:32.519Z,76.73
2017-09-05T04:06:58.661Z,76.73
2017-09-05T04:07:24.820Z,76.64
2017-09-05T04:07:50.945Z,76.73
2017-09-05T04:08:17.078Z,76.44
2017-09-05T04:08:43.216Z,76.44
2017-09-05T04:09:09.351Z,77.01
2017-09-05T04:09:35.478Z,76.92
2017-09-05T04:10:01.608Z,76.44
2017-09-05T04:10:27.739Z,76.54
2017-09-05T04:10:53.868Z,76.15
2017-09-05T04:11:20.003Z,76.15
2017-09-05T04:11:46.137Z,76.54
2017-09-05T04:12:12.274Z,75.77
2017-09-05T04:12:38.400Z,76.44
2017-09-05T04:13:04.537Z,75.57
2017-09-05T04:13:30.676Z,75.48
2017-09-05T04:13:56.804Z,76.34
2017-09-05T04:14:22.934Z,76.34
2017-09-05T04:14:49.071Z,76.34
2017-09-05T04:15:15.202Z,76.15
2017-09-05T04:15:41.332Z,76.44
2017-09-05T04:16:07.466Z,76.64
2017-09-05T04:16:33.596Z,76.44
2017-09-05T04:16:59.730Z,75.77
2017-09-05T04:17:25.862Z,75.96
2017-09-05T04:17:51.989Z,76.44
2017-09-05T04:18:18.126Z,76.15
2017-09-05T04:18:44.257Z,76.54
2017-09-05T04:19:10.385Z,76.64
2017-09-05T04:19:36.523Z,75.87
2017-09-05T04:20:02.649Z,76.34
2017-09-05T04:20:28.781Z,76.44
2017-09-05T04:20:54.913Z,75.77
2017-09-05T04:21:21.053Z,75.67
2017-09-05T04:21:47.181Z,75.87
2017-09-05T04:22:13.335Z,75.67
2017-09-05T04:22:39.470Z,75.48
2017-09-05T04:23:05.602Z,75.38
2017-09-05T04:23:31.737Z,75.57
2017-09-05T04:23:57.871Z,75.67
2017-09-05T04:24:23.999Z,76.54
2017-09-05T04:24:50.133Z,76.54
2017-09-05T04:25:16.258Z,76.25
2017-09-05T04:25:42.387Z,76.64
2017-09-05T04:26:08.525Z,75.57
2017-09-05T04:26:34.657Z,75.96
2017-09-05T04:27:00.789Z,75.87
2017-09-05T04:27:26.929Z,76.25
2017-09-05T04:27:53.053Z,75.87
2017-09-05T04:28:19.194Z,75.87
2017-09-05T04:28:45.322Z,75.87
2017-09-05T04:29:11.459Z,75.32
2017-09-05T04:29:37.581Z,75.48
2017-09-05T04:30:03.714Z,75.48
2017-09-05T04:30:29.849Z,75.57
2017-09-05T04:30:56.017Z,75.87
2017-09-05T04:31:22.145Z,75.67
2017-09-05T04:31:48.272Z,75.48
2017-09-05T04:32:14.410Z,75.2
2017-09-05T04:32:40.533Z,75.62
2017-09-05T04:33:06.667Z,75.67
2017-09-05T04:33:32.796Z,75.38
2017-09-05T04:33:58.933Z,75.67
2017-09-05T04:34:25.062Z,75.57
2017-09-05T04:34:51.194Z,75.38
2017-09-05T04:35:17.326Z,75.57
2017-09-05T04:35:43.454Z,75.57
2017-09-05T04:36:09.590Z,75.87
2017-09-05T04:36:35.720Z,75.96
2017-09-05T04:37:01.853Z,75.67
2017-09-05T04:37:27.992Z,75.38
2017-09-05T04:37:54.124Z,75.57
2017-09-05T04:38:20.256Z,76.34
2017-09-05T04:38:46.414Z,76.44
2017-09-05T04:39:12.564Z,76.25
2017-09-05T04:39:38.699Z,75.57
2017-09-05T04:40:04.828Z,75.67
2017-09-05T04:40:30.968Z,75.48
2017-09-05T04:40:57.097Z,75.87
2017-09-05T04:41:23.225Z,75.57
2017-09-05T04:41:49.364Z,75.29
2017-09-05T04:42:15.494Z,75.87
2017-09-05T04:42:41.631Z,75.77
2017-09-05T04:43:07.769Z,75.77
2017-09-05T04:43:33.893Z,75.29
2017-09-05T04:44:00.028Z,75.77
2017-09-05T04:44:26.188Z,76.54
2017-09-05T04:44:52.341Z,76.15
2017-09-05T04:45:18.472Z,76.06
2017-09-05T04:45:44.603Z,76.15
2017-09-05T04:46:10.761Z,76.54
2017-09-05T04:46:36.902Z,76.44
2017-09-05T04:47:03.032Z,75.96
2017-09-05T04:47:29.159Z,75.67
2017-09-05T04:47:55.297Z,75.48
2017-09-05T04:48:21.431Z,75.29
2017-09-05T04:48:47.554Z,75.57
2017-09-05T04:49:13.687Z,75.57
2017-09-05T04:49:39.819Z,75.48
2017-09-05T04:50:05.978Z,75.87
2017-09-05T04:50:32.106Z,76.15
2017-09-05T04:50:58.241Z,76.15
2017-09-05T04:51:24.366Z,76.44
2017-09-05T04:51:50.504Z,76.44
2017-09-05T04:52:16.628Z,76.15
2017-09-05T04:52:42.760Z,76.25
2017-09-05T04:53:08.901Z,76.44
2017-09-05T04:53:35.036Z,76.44
2017-09-05T04:54:01.164Z,76.92
2017-09-05T04:54:27.302Z,76.64
2017-09-05T04:54:53.438Z,77.21
2017-09-05T04:55:19.567Z,76.64
2017-09-05T04:55:45.697Z,76.64
2017-09-05T04:56:11.835Z,76.73
2017-09-05T04:56:37.969Z,76.64
2017-09-05T04:57:04.106Z,76.64
2017-09-05T04:57:30.236Z,76.64
2017-09-05T04:57:56.366Z,76.54
2017-09-05T04:58:22.503Z,76.73
2017-09-05T04:58:48.637Z,76.64
2017-09-05T04:59:14.770Z,76.73
2017-09-05T04:59:40.895Z,76.34
2017-09-05T05:00:07.030Z,76.54
2017-09-05T05:00:33.164Z,76.64
2017-09-05T05:00:59.294Z,76.64
2017-09-05T05:01:25.426Z,76.82
2017-09-05T05:01:51.562Z,77.01
2017-09-05T05:02:17.689Z,76.34
2017-09-05T05:02:43.824Z,76.44
2017-09-05T05:03:09.984Z,76.64
2017-09-05T05:03:36.123Z,76.25
2017-09-05T05:04:02.252Z,76.06
2017-09-05T05:04:28.387Z,76.34
2017-09-05T05:04:54.516Z,75.87
2017-09-05T05:05:20.670Z,75.57
2017-09-05T05:05:46.804Z,75.38
2017-09-05T05:06:12.938Z,76.06
2017-09-05T05:06:39.071Z,76.73
2017-09-05T05:07:05.205Z,76.34
2017-09-05T05:07:31.334Z,76.15
2017-09-05T05:07:57.468Z,76.34
2017-09-05T05:08:23.601Z,76.25
2017-09-05T05:08:49.731Z,75.81
2017-09-05T05:09:15.864Z,76.44
2017-09-05T05:09:41.990Z,76.64
2017-09-05T05:10:08.118Z,76.15
2017-09-05T05:10:34.290Z,76.15
2017-09-05T05:11:00.386Z,76.09
2017-09-05T05:11:26.519Z,76
2017-09-05T05:11:52.679Z,75.42
2017-09-05T05:12:18.811Z,75.62
2017-09-05T05:12:44.952Z,75.52
2017-09-05T05:13:11.087Z,75.96
2017-09-05T05:13:37.230Z,76.48
2017-09-05T05:14:03.371Z,76.57
2017-09-05T05:14:29.501Z,76.57
2017-09-05T05:14:55.635Z,76.09
2017-09-05T05:15:21.759Z,76.19
2017-09-05T05:15:47.891Z,76.19
2017-09-05T05:16:14.023Z,76.19
2017-09-05T05:16:40.161Z,76.09
2017-09-05T05:17:06.287Z,76
2017-09-05T05:17:32.424Z,75.32
2017-09-05T05:17:58.557Z,75.81
2017-09-05T05:18:24.687Z,75.62
2017-09-05T05:18:50.857Z,75.62
2017-09-05T05:19:16.958Z,75.71
2017-09-05T05:19:43.083Z,75.52
2017-09-05T05:20:09.247Z,75.42
2017-09-05T05:20:35.372Z,75.71
2017-09-05T05:21:01.507Z,75.62
2017-09-05T05:21:27.636Z,75.71
2017-09-05T05:21:53.774Z,75.71
2017-09-05T05:22:19.911Z,75.62
2017-09-05T05:22:46.071Z,75.71
2017-09-05T05:23:12.174Z,75.62
2017-09-05T05:23:38.303Z,75.42
2017-09-05T05:24:04.436Z,75.32
2017-09-05T05:24:30.570Z,75.62
2017-09-05T05:24:56.700Z,75.62
2017-09-05T05:25:22.835Z,75.71
2017-09-05T05:25:48.971Z,75.32
2017-09-05T05:26:15.100Z,75.9
2017-09-05T05:26:41.259Z,75.42
2017-09-05T05:27:07.386Z,75.32
2017-09-05T05:27:33.524Z,76
2017-09-05T05:27:59.655Z,75.42
2017-09-05T05:28:25.788Z,75.81
2017-09-05T05:28:51.912Z,75.62
2017-09-05T05:29:18.042Z,76.19
2017-09-05T05:29:44.181Z,76.48
2017-09-05T05:30:10.337Z,76.29
2017-09-05T05:30:36.471Z,76.19
2017-09-05T05:31:02.607Z,76.67
2017-09-05T05:31:28.734Z,76.29
2017-09-05T05:31:54.868Z,76.57
2017-09-05T05:32:21.000Z,76.19
2017-09-05T05:32:47.131Z,76
2017-09-05T05:33:13.277Z,76.29
2017-09-05T05:33:39.416Z,76.48
2017-09-05T05:34:05.549Z,76.48
2017-09-05T05:34:31.681Z,76.19
2017-09-05T05:34:57.812Z,76
2017-09-05T05:35:23.942Z,75.9
2017-09-05T05:35:50.076Z,76.48
2017-09-05T05:36:16.207Z,76.09
2017-09-05T05:36:42.334Z,76.29
2017-09-05T05:37:08.475Z,76.57
2017-09-05T05:37:34.605Z,76.48